RYR8WA EGSS-LOWW
Flight info
| Callsign | RYR8WA |
|---|---|
| Flight time | 1h 49m |
| Altitude | 39000 |
| Route | CLN M84 KONAN UL607 KOK DCT MATUG DCT GUBAX DCT BARSU DCT EKSOS DCT LULAR DCT RUDAP DCT BUDEX BUDEX2W |
| Aircraft | B738/M-SDE2E3FGHIRWXY/LB1 |
Departure
| Time | 2026-04-21 10:44 |
|---|---|
| Airport | London Stansted Airport (EGSS) |
Arrival
| Time | 2026-04-21 12:33 |
|---|---|
| Airport | Vienna International Airport (LOWW) |
| Time | Latitude | Longitude | Altitude | Speed | Heading |
|---|---|---|---|---|---|
| 2026-04-21 10:16 | 51.89291 | 0.25873 | 348 ft | 0 kts | 43° |
| 2026-04-21 10:32 | 51.89291 | 0.25872 | 352 ft | 1 kts | 43° |
| 2026-04-21 10:32 | 51.89273 | 0.25846 | 354 ft | 4 kts | 43° |
| 2026-04-21 10:32 | 51.89257 | 0.25822 | 354 ft | 4 kts | 38° |
| 2026-04-21 10:33 | 51.89237 | 0.25806 | 356 ft | 4 kts | 342° |
| 2026-04-21 10:33 | 51.89219 | 0.25828 | 358 ft | 4 kts | 313° |
| 2026-04-21 10:33 | 51.89214 | 0.25837 | 358 ft | 0 kts | 313° |
| 2026-04-21 10:37 | 51.89215 | 0.25835 | 358 ft | 2 kts | 313° |
| 2026-04-21 10:37 | 51.89240 | 0.25793 | 358 ft | 8 kts | 313° |
| 2026-04-21 10:37 | 51.89293 | 0.25700 | 348 ft | 14 kts | 313° |
| 2026-04-21 10:37 | 51.89351 | 0.25552 | 351 ft | 17 kts | 257° |
| 2026-04-21 10:38 | 51.89270 | 0.25418 | 348 ft | 18 kts | 223° |
| 2026-04-21 10:38 | 51.89169 | 0.25273 | 351 ft | 21 kts | 221° |
| 2026-04-21 10:38 | 51.89057 | 0.25099 | 352 ft | 24 kts | 222° |
| 2026-04-21 10:38 | 51.88928 | 0.24909 | 354 ft | 26 kts | 217° |
| 2026-04-21 10:39 | 51.88789 | 0.24696 | 353 ft | 29 kts | 225° |
| 2026-04-21 10:39 | 51.88641 | 0.24475 | 351 ft | 28 kts | 222° |
| 2026-04-21 10:39 | 51.88505 | 0.24267 | 348 ft | 26 kts | 221° |
| 2026-04-21 10:39 | 51.88366 | 0.24062 | 348 ft | 30 kts | 223° |
| 2026-04-21 10:40 | 51.88218 | 0.23838 | 351 ft | 28 kts | 224° |
| 2026-04-21 10:40 | 51.88079 | 0.23632 | 348 ft | 26 kts | 223° |
| 2026-04-21 10:40 | 51.87951 | 0.23438 | 356 ft | 24 kts | 222° |
| 2026-04-21 10:40 | 51.87829 | 0.23259 | 350 ft | 23 kts | 223° |
| 2026-04-21 10:41 | 51.87728 | 0.23072 | 350 ft | 22 kts | 262° |
| 2026-04-21 10:41 | 51.87813 | 0.22892 | 350 ft | 6 kts | 313° |
| 2026-04-21 10:41 | 51.87835 | 0.22855 | 346 ft | 6 kts | 314° |
| 2026-04-21 10:41 | 51.87850 | 0.22828 | 337 ft | 0 kts | 307° |
| 2026-04-21 10:42 | 51.87855 | 0.22817 | 339 ft | 3 kts | 308° |
| 2026-04-21 10:42 | 51.87878 | 0.22774 | 337 ft | 6 kts | 311° |
| 2026-04-21 10:42 | 51.87906 | 0.22723 | 339 ft | 6 kts | 312° |
| 2026-04-21 10:42 | 51.87924 | 0.22662 | 348 ft | 6 kts | 292° |
| 2026-04-21 10:43 | 51.87957 | 0.22666 | 346 ft | 6 kts | 43° |
| 2026-04-21 10:43 | 51.87960 | 0.22670 | 346 ft | 0 kts | 43° |
| 2026-04-21 10:43 | 51.88068 | 0.22832 | 341 ft | 55 kts | 43° |
| 2026-04-21 10:43 | 51.88515 | 0.23502 | 348 ft | 117 kts | 43° |
| 2026-04-21 10:44 | 51.89229 | 0.24578 | 467 ft | 155 kts | 45° |
| 2026-04-21 10:44 | 51.90026 | 0.25760 | 1183 ft | 154 kts | 45° |
| 2026-04-21 10:44 | 51.90805 | 0.26946 | 2014 ft | 149 kts | 51° |
| 2026-04-21 10:44 | 51.91357 | 0.28423 | 2511 ft | 167 kts | 69° |
| 2026-04-21 10:45 | 51.91613 | 0.30401 | 2780 ft | 192 kts | 87° |
| 2026-04-21 10:45 | 51.91389 | 0.32661 | 3025 ft | 217 kts | 109° |
| 2026-04-21 10:45 | 51.90700 | 0.34964 | 3407 ft | 236 kts | 113° |
| 2026-04-21 10:45 | 51.89955 | 0.37395 | 3960 ft | 241 kts | 113° |
| 2026-04-21 10:46 | 51.89222 | 0.39852 | 3989 ft | 242 kts | 112° |
| 2026-04-21 10:46 | 51.88495 | 0.42325 | 4007 ft | 243 kts | 112° |
| 2026-04-21 10:46 | 51.87761 | 0.44800 | 4007 ft | 245 kts | 112° |
| 2026-04-21 10:46 | 51.87019 | 0.47313 | 4450 ft | 248 kts | 113° |
| 2026-04-21 10:47 | 51.86284 | 0.49802 | 5398 ft | 243 kts | 113° |
| 2026-04-21 10:47 | 51.85630 | 0.52275 | 5891 ft | 244 kts | 102° |
| 2026-04-21 10:47 | 51.85514 | 0.54964 | 6044 ft | 234 kts | 89° |
| 2026-04-21 10:47 | 51.85522 | 0.57632 | 6134 ft | 242 kts | 90° |
| 2026-04-21 10:48 | 51.85490 | 0.60406 | 6713 ft | 249 kts | 91° |
| 2026-04-21 10:48 | 51.85459 | 0.63203 | 7530 ft | 249 kts | 91° |
| 2026-04-21 10:48 | 51.85423 | 0.66046 | 8249 ft | 254 kts | 91° |
| 2026-04-21 10:48 | 51.85383 | 0.68924 | 8994 ft | 259 kts | 91° |
| 2026-04-21 10:49 | 51.85303 | 0.71851 | 9765 ft | 264 kts | 98° |
| 2026-04-21 10:49 | 51.84586 | 0.74568 | 10594 ft | 268 kts | 126° |
| 2026-04-21 10:49 | 51.83209 | 0.76671 | 11114 ft | 286 kts | 139° |
| 2026-04-21 10:49 | 51.81546 | 0.78686 | 11320 ft | 311 kts | 140° |
| 2026-04-21 10:50 | 51.79730 | 0.80803 | 11512 ft | 334 kts | 141° |
| 2026-04-21 10:50 | 51.77800 | 0.83027 | 11960 ft | 346 kts | 141° |
| 2026-04-21 10:50 | 51.75815 | 0.85328 | 12580 ft | 353 kts | 141° |
| 2026-04-21 10:50 | 51.73925 | 0.87862 | 13362 ft | 353 kts | 133° |
| 2026-04-21 10:51 | 51.72192 | 0.90669 | 14193 ft | 354 kts | 130° |
| 2026-04-21 10:51 | 51.70478 | 0.93577 | 14823 ft | 360 kts | 131° |
| 2026-04-21 10:51 | 51.68741 | 0.96523 | 15574 ft | 363 kts | 130° |
| 2026-04-21 10:51 | 51.66979 | 0.99472 | 16251 ft | 368 kts | 131° |
| 2026-04-21 10:52 | 51.65170 | 1.02462 | 16860 ft | 376 kts | 132° |
| 2026-04-21 10:52 | 51.63341 | 1.05451 | 17499 ft | 381 kts | 133° |
| 2026-04-21 10:52 | 51.61472 | 1.08481 | 18306 ft | 382 kts | 133° |
| 2026-04-21 10:52 | 51.59591 | 1.11518 | 19014 ft | 384 kts | 131° |
| 2026-04-21 10:53 | 51.57692 | 1.14581 | 19530 ft | 390 kts | 133° |
| 2026-04-21 10:53 | 51.55755 | 1.17697 | 20077 ft | 395 kts | 132° |
| 2026-04-21 10:53 | 51.53802 | 1.20839 | 20588 ft | 401 kts | 132° |
| 2026-04-21 10:53 | 51.51815 | 1.24031 | 21077 ft | 407 kts | 133° |
| 2026-04-21 10:54 | 51.49794 | 1.27273 | 21583 ft | 412 kts | 134° |
| 2026-04-21 10:54 | 51.47756 | 1.30539 | 22123 ft | 416 kts | 133° |
| 2026-04-21 10:54 | 51.45687 | 1.33847 | 22543 ft | 423 kts | 134° |
| 2026-04-21 10:54 | 51.43601 | 1.37190 | 23151 ft | 425 kts | 133° |
| 2026-04-21 10:55 | 51.41664 | 1.40786 | 23670 ft | 428 kts | 127° |
| 2026-04-21 10:55 | 51.39863 | 1.44530 | 24101 ft | 432 kts | 125° |
| 2026-04-21 10:55 | 51.38065 | 1.48376 | 24684 ft | 431 kts | 124° |
| 2026-04-21 10:55 | 51.36254 | 1.52242 | 24975 ft | 438 kts | 125° |
| 2026-04-21 10:56 | 51.34394 | 1.56179 | 25165 ft | 447 kts | 126° |
| 2026-04-21 10:56 | 51.32499 | 1.60143 | 25579 ft | 450 kts | 127° |
| 2026-04-21 10:56 | 51.30566 | 1.64155 | 25712 ft | 461 kts | 127° |
| 2026-04-21 10:56 | 51.28594 | 1.68230 | 25975 ft | 467 kts | 127° |
| 2026-04-21 10:57 | 51.26592 | 1.72354 | 26343 ft | 471 kts | 127° |
| 2026-04-21 10:57 | 51.24571 | 1.76508 | 26683 ft | 475 kts | 127° |
| 2026-04-21 10:57 | 51.22533 | 1.80695 | 27000 ft | 479 kts | 127° |
| 2026-04-21 10:57 | 51.20477 | 1.84916 | 27302 ft | 484 kts | 127° |
| 2026-04-21 10:58 | 51.18396 | 1.89180 | 27603 ft | 488 kts | 127° |
| 2026-04-21 10:58 | 51.16312 | 1.93460 | 28159 ft | 486 kts | 126° |
| 2026-04-21 10:58 | 51.14510 | 1.98004 | 28516 ft | 488 kts | 115° |
| 2026-04-21 10:58 | 51.13254 | 2.02975 | 28686 ft | 491 kts | 104° |
| 2026-04-21 10:59 | 51.12506 | 2.08343 | 28934 ft | 491 kts | 93° |
| 2026-04-21 10:59 | 51.12220 | 2.13763 | 29239 ft | 493 kts | 90° |
| 2026-04-21 10:59 | 51.11983 | 2.19225 | 29516 ft | 496 kts | 90° |
| 2026-04-21 10:59 | 51.11737 | 2.24717 | 29768 ft | 500 kts | 90° |
| 2026-04-21 11:00 | 51.11469 | 2.30196 | 30026 ft | 504 kts | 90° |
| 2026-04-21 11:00 | 51.11175 | 2.35757 | 30364 ft | 506 kts | 91° |
| 2026-04-21 11:00 | 51.10865 | 2.41300 | 31046 ft | 496 kts | 91° |
| 2026-04-21 11:00 | 51.10554 | 2.46723 | 31781 ft | 488 kts | 91° |
| 2026-04-21 11:01 | 51.10248 | 2.52098 | 32097 ft | 489 kts | 91° |
| 2026-04-21 11:01 | 51.09943 | 2.57503 | 32273 ft | 493 kts | 91° |
| 2026-04-21 11:01 | 51.09630 | 2.62957 | 32544 ft | 495 kts | 92° |
| 2026-04-21 11:02 | 51.08287 | 2.73678 | 33398 ft | 494 kts | 102° |
| 2026-04-21 11:02 | 51.07385 | 2.78938 | 33803 ft | 493 kts | 103° |
| 2026-04-21 11:02 | 51.06458 | 2.84207 | 34173 ft | 493 kts | 103° |
| 2026-04-21 11:02 | 51.05542 | 2.89434 | 34564 ft | 490 kts | 103° |
| 2026-04-21 11:03 | 51.04641 | 2.94643 | 34968 ft | 486 kts | 103° |
| 2026-04-21 11:03 | 51.03756 | 2.99823 | 35267 ft | 486 kts | 103° |
| 2026-04-21 11:03 | 51.02880 | 3.05004 | 35498 ft | 486 kts | 103° |
| 2026-04-21 11:03 | 51.02006 | 3.10199 | 35742 ft | 486 kts | 103° |
| 2026-04-21 11:04 | 51.01135 | 3.15379 | 36041 ft | 485 kts | 103° |
| 2026-04-21 11:04 | 51.00261 | 3.20557 | 36355 ft | 484 kts | 103° |
| 2026-04-21 11:04 | 50.99390 | 3.25703 | 36634 ft | 483 kts | 103° |
| 2026-04-21 11:04 | 50.98517 | 3.30846 | 36903 ft | 483 kts | 103° |
| 2026-04-21 11:05 | 50.97652 | 3.35918 | 37191 ft | 481 kts | 103° |
| 2026-04-21 11:05 | 50.96778 | 3.41031 | 37479 ft | 480 kts | 103° |
| 2026-04-21 11:05 | 50.95897 | 3.46163 | 37732 ft | 480 kts | 103° |
| 2026-04-21 11:05 | 50.95019 | 3.51262 | 37960 ft | 480 kts | 103° |
| 2026-04-21 11:06 | 50.94138 | 3.56369 | 38185 ft | 479 kts | 103° |
| 2026-04-21 11:06 | 50.93256 | 3.61459 | 38458 ft | 478 kts | 103° |
| 2026-04-21 11:06 | 50.92371 | 3.66555 | 38703 ft | 478 kts | 103° |
| 2026-04-21 11:06 | 50.91488 | 3.71630 | 38920 ft | 477 kts | 103° |
| 2026-04-21 11:07 | 50.90601 | 3.76706 | 39118 ft | 477 kts | 103° |
| 2026-04-21 11:07 | 50.89714 | 3.81769 | 39252 ft | 476 kts | 104° |
| 2026-04-21 11:07 | 50.87930 | 3.91918 | 39268 ft | 478 kts | 104° |
| 2026-04-21 11:08 | 50.86152 | 4.01967 | 39272 ft | 476 kts | 104° |
| 2026-04-21 11:08 | 50.84357 | 4.12056 | 39282 ft | 475 kts | 104° |
| 2026-04-21 11:09 | 50.82560 | 4.22103 | 39284 ft | 474 kts | 104° |
| 2026-04-21 11:09 | 50.80757 | 4.32125 | 39286 ft | 473 kts | 104° |
| 2026-04-21 11:10 | 50.78951 | 4.42112 | 39283 ft | 473 kts | 104° |
| 2026-04-21 11:10 | 50.77145 | 4.52043 | 39289 ft | 473 kts | 104° |
| 2026-04-21 11:11 | 50.75317 | 4.62040 | 39290 ft | 474 kts | 104° |
| 2026-04-21 11:11 | 50.73476 | 4.72058 | 39284 ft | 476 kts | 104° |
| 2026-04-21 11:12 | 50.71608 | 4.82160 | 39287 ft | 478 kts | 104° |
| 2026-04-21 11:12 | 50.69745 | 4.92183 | 39281 ft | 479 kts | 104° |
| 2026-04-21 11:13 | 50.67857 | 5.02285 | 39277 ft | 480 kts | 104° |
| 2026-04-21 11:13 | 50.65958 | 5.12392 | 39264 ft | 481 kts | 105° |
| 2026-04-21 11:14 | 50.64048 | 5.22503 | 39272 ft | 481 kts | 105° |
| 2026-04-21 11:14 | 50.62141 | 5.32545 | 39265 ft | 481 kts | 105° |
| 2026-04-21 11:15 | 50.60217 | 5.42620 | 39258 ft | 480 kts | 105° |
| 2026-04-21 11:15 | 50.58287 | 5.52673 | 39259 ft | 479 kts | 105° |
| 2026-04-21 11:16 | 50.56678 | 5.61018 | 39261 ft | 478 kts | 105° |
| 2026-04-21 11:16 | 50.54425 | 5.72636 | 39244 ft | 477 kts | 105° |
| 2026-04-21 11:17 | 50.52480 | 5.82611 | 39240 ft | 477 kts | 105° |
| 2026-04-21 11:17 | 50.50531 | 5.92555 | 39241 ft | 476 kts | 105° |
| 2026-04-21 11:18 | 50.48904 | 6.00819 | 39230 ft | 476 kts | 105° |
| 2026-04-21 11:18 | 50.46941 | 6.10744 | 39241 ft | 475 kts | 105° |
| 2026-04-21 11:19 | 50.44972 | 6.20647 | 39229 ft | 475 kts | 105° |
| 2026-04-21 11:19 | 50.42994 | 6.30553 | 39216 ft | 476 kts | 106° |
| 2026-04-21 11:20 | 50.41308 | 6.40568 | 39208 ft | 474 kts | 95° |
| 2026-04-21 11:20 | 50.40541 | 6.50831 | 39221 ft | 474 kts | 94° |
| 2026-04-21 11:21 | 50.39822 | 6.61057 | 39216 ft | 475 kts | 94° |
| 2026-04-21 11:21 | 50.39049 | 6.71345 | 39215 ft | 475 kts | 95° |
| 2026-04-21 11:22 | 50.38238 | 6.81641 | 39215 ft | 476 kts | 95° |
| 2026-04-21 11:22 | 50.37431 | 6.91690 | 39218 ft | 477 kts | 95° |
| 2026-04-21 11:23 | 50.36594 | 7.02014 | 39222 ft | 477 kts | 95° |
| 2026-04-21 11:23 | 50.35750 | 7.12334 | 39218 ft | 477 kts | 95° |
| 2026-04-21 11:24 | 50.34897 | 7.22645 | 39209 ft | 477 kts | 95° |
| 2026-04-21 11:24 | 50.34036 | 7.32952 | 39219 ft | 477 kts | 95° |
| 2026-04-21 11:25 | 50.33172 | 7.43170 | 39224 ft | 476 kts | 96° |
| 2026-04-21 11:25 | 50.32295 | 7.53443 | 39217 ft | 476 kts | 96° |
| 2026-04-21 11:26 | 50.31410 | 7.63696 | 39219 ft | 475 kts | 96° |
| 2026-04-21 11:26 | 50.30516 | 7.73940 | 39226 ft | 474 kts | 96° |
| 2026-04-21 11:27 | 50.29617 | 7.84162 | 39227 ft | 474 kts | 96° |
| 2026-04-21 11:27 | 50.28640 | 7.94351 | 39227 ft | 474 kts | 99° |
| 2026-04-21 11:28 | 50.27283 | 8.04391 | 39229 ft | 474 kts | 101° |
| 2026-04-21 11:28 | 50.25816 | 8.14458 | 39226 ft | 474 kts | 101° |
| 2026-04-21 11:29 | 50.24374 | 8.24518 | 39223 ft | 474 kts | 101° |
| 2026-04-21 11:29 | 50.22954 | 8.34580 | 39231 ft | 475 kts | 101° |
| 2026-04-21 11:30 | 50.21529 | 8.44677 | 39223 ft | 475 kts | 101° |
| 2026-04-21 11:30 | 50.20096 | 8.54764 | 39216 ft | 476 kts | 101° |
| 2026-04-21 11:31 | 50.18652 | 8.64847 | 39212 ft | 476 kts | 101° |
| 2026-04-21 11:31 | 50.17197 | 8.74943 | 39211 ft | 477 kts | 101° |
| 2026-04-21 11:32 | 50.15740 | 8.84978 | 39204 ft | 477 kts | 101° |
| 2026-04-21 11:32 | 50.14266 | 8.95068 | 39208 ft | 477 kts | 101° |
| 2026-04-21 11:33 | 50.12780 | 9.05167 | 39204 ft | 477 kts | 101° |
| 2026-04-21 11:33 | 50.11287 | 9.15256 | 39206 ft | 478 kts | 101° |
| 2026-04-21 11:34 | 50.09783 | 9.25354 | 39200 ft | 478 kts | 101° |
| 2026-04-21 11:34 | 50.08279 | 9.35385 | 39198 ft | 478 kts | 101° |
| 2026-04-21 11:35 | 50.06760 | 9.45451 | 39192 ft | 478 kts | 102° |
| 2026-04-21 11:35 | 50.05231 | 9.55522 | 39196 ft | 477 kts | 102° |
| 2026-04-21 11:36 | 50.03694 | 9.65580 | 39198 ft | 477 kts | 102° |
| 2026-04-21 11:36 | 50.02147 | 9.75637 | 39194 ft | 477 kts | 102° |
| 2026-04-21 11:37 | 50.00606 | 9.85600 | 39195 ft | 477 kts | 102° |
| 2026-04-21 11:37 | 49.99046 | 9.95618 | 39191 ft | 476 kts | 102° |
| 2026-04-21 11:38 | 49.97480 | 10.05620 | 39202 ft | 476 kts | 102° |
| 2026-04-21 11:38 | 49.95903 | 10.15623 | 39221 ft | 476 kts | 102° |
| 2026-04-21 11:39 | 49.94320 | 10.25616 | 39215 ft | 477 kts | 102° |
| 2026-04-21 11:39 | 49.92727 | 10.35610 | 39212 ft | 477 kts | 102° |
| 2026-04-21 11:40 | 49.90722 | 10.45352 | 39218 ft | 478 kts | 110° |
| 2026-04-21 11:40 | 49.88175 | 10.54896 | 39214 ft | 479 kts | 111° |
| 2026-04-21 11:41 | 49.85605 | 10.64446 | 39207 ft | 479 kts | 111° |
| 2026-04-21 11:41 | 49.83085 | 10.74013 | 39215 ft | 480 kts | 111° |
| 2026-04-21 11:42 | 49.80575 | 10.83614 | 39192 ft | 481 kts | 111° |
| 2026-04-21 11:42 | 49.78059 | 10.93207 | 39194 ft | 481 kts | 111° |
| 2026-04-21 11:43 | 49.75527 | 11.02806 | 39186 ft | 481 kts | 111° |
| 2026-04-21 11:43 | 49.73006 | 11.12318 | 39182 ft | 480 kts | 111° |
| 2026-04-21 11:44 | 49.70466 | 11.21866 | 39185 ft | 480 kts | 111° |
| 2026-04-21 11:44 | 49.67919 | 11.31404 | 39174 ft | 480 kts | 111° |
| 2026-04-21 11:45 | 49.65372 | 11.40924 | 39175 ft | 479 kts | 110° |
| 2026-04-21 11:45 | 49.63212 | 11.50645 | 39174 ft | 478 kts | 106° |
| 2026-04-21 11:46 | 49.61260 | 11.60435 | 39164 ft | 478 kts | 106° |
| 2026-04-21 11:46 | 49.59274 | 11.70240 | 39159 ft | 478 kts | 106° |
| 2026-04-21 11:47 | 49.57256 | 11.79930 | 39166 ft | 478 kts | 107° |
| 2026-04-21 11:47 | 49.55197 | 11.89691 | 39159 ft | 479 kts | 107° |
| 2026-04-21 11:48 | 49.53128 | 11.99446 | 39169 ft | 480 kts | 107° |
| 2026-04-21 11:48 | 49.51048 | 12.09220 | 39166 ft | 481 kts | 107° |
| 2026-04-21 11:49 | 49.48959 | 12.18995 | 39187 ft | 481 kts | 107° |
| 2026-04-21 11:49 | 49.46859 | 12.28774 | 39175 ft | 482 kts | 107° |
| 2026-04-21 11:50 | 49.44746 | 12.38567 | 39177 ft | 483 kts | 107° |
| 2026-04-21 11:50 | 49.42623 | 12.48357 | 39174 ft | 483 kts | 107° |
| 2026-04-21 11:51 | 49.40494 | 12.58134 | 39176 ft | 483 kts | 107° |
| 2026-04-21 11:51 | 49.38369 | 12.67846 | 39176 ft | 483 kts | 107° |
| 2026-04-21 11:52 | 49.36208 | 12.77654 | 39177 ft | 482 kts | 108° |
| 2026-04-21 11:52 | 49.33873 | 12.87295 | 39168 ft | 482 kts | 110° |
| 2026-04-21 11:53 | 49.31480 | 12.96840 | 39170 ft | 482 kts | 110° |
| 2026-04-21 11:53 | 49.29097 | 13.06440 | 39172 ft | 481 kts | 110° |
| 2026-04-21 11:54 | 49.26726 | 13.16029 | 39172 ft | 481 kts | 110° |
| 2026-04-21 11:54 | 49.24345 | 13.25615 | 39170 ft | 481 kts | 110° |
| 2026-04-21 11:55 | 49.21868 | 13.35126 | 39177 ft | 481 kts | 111° |
| 2026-04-21 11:55 | 49.19307 | 13.44521 | 39182 ft | 481 kts | 111° |
| 2026-04-21 11:56 | 49.16726 | 13.53981 | 39159 ft | 481 kts | 111° |
| 2026-04-21 11:56 | 49.14156 | 13.63434 | 39169 ft | 482 kts | 111° |
| 2026-04-21 11:57 | 49.11581 | 13.72892 | 39172 ft | 482 kts | 111° |
| 2026-04-21 11:57 | 49.09001 | 13.82328 | 39185 ft | 482 kts | 112° |
| 2026-04-21 11:58 | 49.06405 | 13.91784 | 39182 ft | 483 kts | 112° |
| 2026-04-21 11:58 | 49.03815 | 14.01176 | 39178 ft | 483 kts | 112° |
| 2026-04-21 11:59 | 49.02525 | 14.05841 | 39160 ft | 472 kts | 112° |
| 2026-04-21 11:59 | 49.01267 | 14.10380 | 39139 ft | 458 kts | 112° |
| 2026-04-21 11:59 | 49.00035 | 14.14819 | 38951 ft | 451 kts | 112° |
| 2026-04-21 11:59 | 48.98812 | 14.19217 | 38260 ft | 455 kts | 112° |
| 2026-04-21 12:00 | 48.97564 | 14.23705 | 37281 ft | 465 kts | 112° |
| 2026-04-21 12:00 | 48.96287 | 14.28285 | 36377 ft | 474 kts | 112° |
| 2026-04-21 12:00 | 48.94975 | 14.32922 | 35556 ft | 479 kts | 115° |
| 2026-04-21 12:00 | 48.93253 | 14.37288 | 34789 ft | 484 kts | 126° |
| 2026-04-21 12:01 | 48.91199 | 14.41353 | 34147 ft | 484 kts | 129° |
| 2026-04-21 12:01 | 48.89077 | 14.45344 | 33450 ft | 483 kts | 129° |
| 2026-04-21 12:01 | 48.86995 | 14.49259 | 32745 ft | 482 kts | 129° |
| 2026-04-21 12:01 | 48.84923 | 14.53225 | 31927 ft | 477 kts | 128° |
| 2026-04-21 12:02 | 48.82883 | 14.57196 | 30838 ft | 476 kts | 127° |
| 2026-04-21 12:02 | 48.78835 | 14.65184 | 28515 ft | 470 kts | 127° |
| 2026-04-21 12:02 | 48.76863 | 14.69080 | 27886 ft | 463 kts | 127° |
| 2026-04-21 12:03 | 48.74914 | 14.72918 | 27302 ft | 457 kts | 127° |
| 2026-04-21 12:03 | 48.73631 | 14.75437 | 26920 ft | 454 kts | 127° |
| 2026-04-21 12:03 | 48.71705 | 14.79208 | 26328 ft | 449 kts | 127° |
| 2026-04-21 12:03 | 48.69801 | 14.82923 | 25756 ft | 445 kts | 128° |
| 2026-04-21 12:04 | 48.67913 | 14.86600 | 25198 ft | 441 kts | 128° |
| 2026-04-21 12:04 | 48.66037 | 14.90249 | 24635 ft | 437 kts | 128° |
| 2026-04-21 12:04 | 48.64178 | 14.93866 | 24081 ft | 433 kts | 128° |
| 2026-04-21 12:04 | 48.62333 | 14.97450 | 23491 ft | 430 kts | 128° |
| 2026-04-21 12:05 | 48.60495 | 15.01014 | 22857 ft | 426 kts | 128° |
| 2026-04-21 12:05 | 48.58858 | 15.04636 | 22283 ft | 421 kts | 115° |
| 2026-04-21 12:05 | 48.57973 | 15.08799 | 21791 ft | 413 kts | 102° |
| 2026-04-21 12:05 | 48.57299 | 15.12998 | 21201 ft | 410 kts | 102° |
| 2026-04-21 12:06 | 48.56618 | 15.17175 | 20672 ft | 406 kts | 103° |
| 2026-04-21 12:06 | 48.55931 | 15.21287 | 20120 ft | 403 kts | 103° |
| 2026-04-21 12:06 | 48.55235 | 15.25370 | 19594 ft | 399 kts | 103° |
| 2026-04-21 12:06 | 48.54539 | 15.29402 | 19069 ft | 396 kts | 103° |
| 2026-04-21 12:07 | 48.53849 | 15.33379 | 18565 ft | 393 kts | 103° |
| 2026-04-21 12:07 | 48.53156 | 15.37359 | 17978 ft | 391 kts | 103° |
| 2026-04-21 12:07 | 48.52467 | 15.41307 | 17415 ft | 387 kts | 103° |
| 2026-04-21 12:07 | 48.51842 | 15.45222 | 16969 ft | 380 kts | 98° |
| 2026-04-21 12:08 | 48.51557 | 15.49147 | 16677 ft | 372 kts | 92° |
| 2026-04-21 12:08 | 48.51406 | 15.53061 | 16370 ft | 378 kts | 91° |
| 2026-04-21 12:08 | 48.51251 | 15.57060 | 16042 ft | 382 kts | 92° |
| 2026-04-21 12:08 | 48.51055 | 15.61034 | 15711 ft | 378 kts | 93° |
| 2026-04-21 12:09 | 48.50836 | 15.64968 | 15391 ft | 375 kts | 93° |
| 2026-04-21 12:09 | 48.50609 | 15.68877 | 15085 ft | 372 kts | 93° |
| 2026-04-21 12:09 | 48.50380 | 15.72764 | 14777 ft | 370 kts | 92° |
| 2026-04-21 12:09 | 48.50153 | 15.76614 | 14475 ft | 367 kts | 93° |
| 2026-04-21 12:10 | 48.49929 | 15.80385 | 14177 ft | 365 kts | 93° |
| 2026-04-21 12:10 | 48.49703 | 15.84205 | 13857 ft | 363 kts | 93° |
| 2026-04-21 12:10 | 48.49477 | 15.87985 | 13524 ft | 361 kts | 93° |
| 2026-04-21 12:10 | 48.49252 | 15.91744 | 13199 ft | 359 kts | 94° |
| 2026-04-21 12:11 | 48.49028 | 15.95489 | 12895 ft | 357 kts | 93° |
| 2026-04-21 12:11 | 48.48803 | 15.99214 | 12588 ft | 355 kts | 93° |
| 2026-04-21 12:11 | 48.48579 | 16.02921 | 12294 ft | 354 kts | 93° |
| 2026-04-21 12:11 | 48.48354 | 16.06600 | 11996 ft | 352 kts | 94° |
| 2026-04-21 12:12 | 48.48128 | 16.10272 | 11700 ft | 350 kts | 94° |
| 2026-04-21 12:12 | 48.47898 | 16.13894 | 11423 ft | 342 kts | 94° |
| 2026-04-21 12:12 | 48.47673 | 16.17414 | 11213 ft | 331 kts | 94° |
| 2026-04-21 12:12 | 48.47454 | 16.20802 | 11134 ft | 318 kts | 93° |
| 2026-04-21 12:13 | 48.47212 | 16.24033 | 11118 ft | 304 kts | 95° |
| 2026-04-21 12:13 | 48.46923 | 16.27074 | 10996 ft | 293 kts | 96° |
| 2026-04-21 12:13 | 48.46650 | 16.30180 | 10475 ft | 298 kts | 95° |
| 2026-04-21 12:13 | 48.46381 | 16.33239 | 10328 ft | 290 kts | 94° |
| 2026-04-21 12:14 | 48.46109 | 16.36202 | 10193 ft | 282 kts | 95° |
| 2026-04-21 12:14 | 48.45844 | 16.39075 | 10126 ft | 271 kts | 95° |
| 2026-04-21 12:14 | 48.45594 | 16.41834 | 10107 ft | 259 kts | 94° |
| 2026-04-21 12:14 | 48.45347 | 16.44454 | 10122 ft | 247 kts | 95° |
| 2026-04-21 12:15 | 48.45094 | 16.46997 | 10123 ft | 248 kts | 96° |
| 2026-04-21 12:15 | 48.44841 | 16.49684 | 10152 ft | 269 kts | 95° |
| 2026-04-21 12:15 | 48.44582 | 16.52488 | 10146 ft | 277 kts | 96° |
| 2026-04-21 12:15 | 48.44320 | 16.55369 | 10137 ft | 277 kts | 94° |
| 2026-04-21 12:16 | 48.44049 | 16.58231 | 10126 ft | 275 kts | 96° |
| 2026-04-21 12:16 | 48.43784 | 16.61077 | 10118 ft | 273 kts | 95° |
| 2026-04-21 12:16 | 48.43532 | 16.63903 | 10122 ft | 272 kts | 96° |
| 2026-04-21 12:16 | 48.43151 | 16.66678 | 10099 ft | 273 kts | 110° |
| 2026-04-21 12:17 | 48.42052 | 16.69026 | 9912 ft | 280 kts | 136° |
| 2026-04-21 12:17 | 48.40482 | 16.70756 | 9599 ft | 280 kts | 144° |
| 2026-04-21 12:17 | 48.38838 | 16.72369 | 9247 ft | 281 kts | 145° |
| 2026-04-21 12:17 | 48.37150 | 16.73770 | 9044 ft | 280 kts | 160° |
| 2026-04-21 12:18 | 48.35276 | 16.74572 | 9007 ft | 282 kts | 165° |
| 2026-04-21 12:18 | 48.33365 | 16.75291 | 8987 ft | 281 kts | 165° |
| 2026-04-21 12:18 | 48.31483 | 16.75992 | 8973 ft | 277 kts | 165° |
| 2026-04-21 12:18 | 48.29603 | 16.76685 | 8981 ft | 280 kts | 164° |
| 2026-04-21 12:19 | 48.27689 | 16.77377 | 8993 ft | 285 kts | 165° |
| 2026-04-21 12:19 | 48.25748 | 16.78080 | 9003 ft | 289 kts | 165° |
| 2026-04-21 12:19 | 48.23786 | 16.78790 | 8995 ft | 290 kts | 165° |
| 2026-04-21 12:19 | 48.21840 | 16.79495 | 8983 ft | 286 kts | 165° |
| 2026-04-21 12:20 | 48.19912 | 16.80192 | 8983 ft | 284 kts | 165° |
| 2026-04-21 12:20 | 48.18015 | 16.80877 | 8991 ft | 285 kts | 165° |
| 2026-04-21 12:20 | 48.16088 | 16.81573 | 8989 ft | 285 kts | 165° |
| 2026-04-21 12:20 | 48.14160 | 16.82273 | 9001 ft | 285 kts | 165° |
| 2026-04-21 12:21 | 48.12237 | 16.82978 | 8992 ft | 284 kts | 165° |
| 2026-04-21 12:21 | 48.10293 | 16.83691 | 8979 ft | 284 kts | 165° |
| 2026-04-21 12:21 | 48.08394 | 16.84382 | 8999 ft | 285 kts | 165° |
| 2026-04-21 12:21 | 48.06456 | 16.85085 | 8987 ft | 287 kts | 165° |
| 2026-04-21 12:22 | 48.04513 | 16.85785 | 8981 ft | 288 kts | 165° |
| 2026-04-21 12:22 | 48.02569 | 16.86490 | 8996 ft | 285 kts | 165° |
| 2026-04-21 12:22 | 48.00656 | 16.87190 | 8976 ft | 282 kts | 165° |
| 2026-04-21 12:22 | 47.98743 | 16.87885 | 8782 ft | 281 kts | 165° |
| 2026-04-21 12:23 | 47.96850 | 16.88576 | 8540 ft | 279 kts | 165° |
| 2026-04-21 12:23 | 47.94961 | 16.89267 | 8235 ft | 280 kts | 165° |
| 2026-04-21 12:23 | 47.93042 | 16.89955 | 7854 ft | 285 kts | 165° |
| 2026-04-21 12:23 | 47.91121 | 16.90645 | 7667 ft | 281 kts | 165° |
| 2026-04-21 12:24 | 47.89238 | 16.91308 | 7557 ft | 275 kts | 168° |
| 2026-04-21 12:24 | 47.87383 | 16.91147 | 7475 ft | 263 kts | 203° |
| 2026-04-21 12:24 | 47.85993 | 16.89595 | 7217 ft | 251 kts | 239° |
| 2026-04-21 12:24 | 47.85339 | 16.87284 | 6912 ft | 239 kts | 256° |
| 2026-04-21 12:25 | 47.84791 | 16.84901 | 6403 ft | 240 kts | 255° |
| 2026-04-21 12:25 | 47.84267 | 16.82600 | 6068 ft | 231 kts | 255° |
| 2026-04-21 12:25 | 47.83745 | 16.80415 | 5857 ft | 220 kts | 256° |
| 2026-04-21 12:25 | 47.83213 | 16.78307 | 5472 ft | 215 kts | 259° |
| 2026-04-21 12:26 | 47.83248 | 16.76217 | 5027 ft | 197 kts | 301° |
| 2026-04-21 12:26 | 47.84065 | 16.74666 | 4566 ft | 192 kts | 315° |
| 2026-04-21 12:26 | 47.84959 | 16.73201 | 4301 ft | 189 kts | 315° |
| 2026-04-21 12:26 | 47.85838 | 16.71737 | 4036 ft | 192 kts | 315° |
| 2026-04-21 12:27 | 47.86739 | 16.70239 | 4007 ft | 195 kts | 315° |
| 2026-04-21 12:27 | 47.87638 | 16.68747 | 3985 ft | 193 kts | 316° |
| 2026-04-21 12:27 | 47.88757 | 16.67699 | 3984 ft | 190 kts | 346° |
| 2026-04-21 12:27 | 47.90015 | 16.67249 | 3982 ft | 183 kts | 343° |
| 2026-04-21 12:28 | 47.91207 | 16.66677 | 3972 ft | 177 kts | 343° |
| 2026-04-21 12:28 | 47.92370 | 16.66148 | 3970 ft | 173 kts | 344° |
| 2026-04-21 12:28 | 47.93517 | 16.65651 | 3804 ft | 174 kts | 345° |
| 2026-04-21 12:28 | 47.94672 | 16.65157 | 3587 ft | 170 kts | 345° |
| 2026-04-21 12:29 | 47.95788 | 16.64682 | 3370 ft | 164 kts | 345° |
| 2026-04-21 12:29 | 47.96886 | 16.64218 | 3131 ft | 165 kts | 343° |
| 2026-04-21 12:29 | 47.97974 | 16.63755 | 2899 ft | 158 kts | 344° |
| 2026-04-21 12:29 | 47.99003 | 16.63323 | 2664 ft | 148 kts | 344° |
| 2026-04-21 12:30 | 47.99994 | 16.62903 | 2518 ft | 145 kts | 344° |
| 2026-04-21 12:30 | 48.00913 | 16.62510 | 2305 ft | 131 kts | 345° |
| 2026-04-21 12:30 | 48.01792 | 16.62137 | 2130 ft | 131 kts | 345° |
| 2026-04-21 12:30 | 48.02650 | 16.61774 | 1948 ft | 126 kts | 344° |
| 2026-04-21 12:31 | 48.03473 | 16.61423 | 1770 ft | 125 kts | 344° |
| 2026-04-21 12:31 | 48.04326 | 16.61062 | 1601 ft | 130 kts | 344° |
| 2026-04-21 12:31 | 48.05190 | 16.60697 | 1424 ft | 127 kts | 343° |
| 2026-04-21 12:31 | 48.06056 | 16.60327 | 1223 ft | 131 kts | 343° |
| 2026-04-21 12:32 | 48.06950 | 16.59948 | 1039 ft | 136 kts | 343° |
| 2026-04-21 12:32 | 48.07857 | 16.59563 | 846 ft | 136 kts | 342° |
| 2026-04-21 12:32 | 48.08751 | 16.59184 | 637 ft | 130 kts | 342° |
| 2026-04-21 12:32 | 48.09557 | 16.58847 | 614 ft | 107 kts | 344° |
| 2026-04-21 12:33 | 48.10125 | 16.58600 | 618 ft | 64 kts | 344° |
| 2026-04-21 12:33 | 48.10441 | 16.58466 | 612 ft | 40 kts | 344° |
| 2026-04-21 12:33 | 48.10686 | 16.58324 | 612 ft | 35 kts | 327° |
| 2026-04-21 12:33 | 48.10844 | 16.58092 | 609 ft | 30 kts | 313° |
| 2026-04-21 12:34 | 48.10991 | 16.57881 | 616 ft | 28 kts | 315° |
| 2026-04-21 12:34 | 48.11147 | 16.57734 | 609 ft | 26 kts | 329° |
| 2026-04-21 12:34 | 48.11316 | 16.57679 | 619 ft | 24 kts | 346° |
| 2026-04-21 12:34 | 48.11472 | 16.57611 | 613 ft | 22 kts | 342° |
| 2026-04-21 12:35 | 48.11562 | 16.57567 | 619 ft | 9 kts | 342° |
| 2026-04-21 12:35 | 48.11618 | 16.57545 | 620 ft | 8 kts | 351° |
| 2026-04-21 12:35 | 48.11673 | 16.57529 | 613 ft | 8 kts | 345° |
| 2026-04-21 12:35 | 48.11729 | 16.57505 | 614 ft | 10 kts | 344° |
| 2026-04-21 12:36 | 48.11801 | 16.57459 | 609 ft | 12 kts | 306° |
| 2026-04-21 12:36 | 48.11816 | 16.57332 | 615 ft | 12 kts | 292° |
| 2026-04-21 12:36 | 48.11853 | 16.57218 | 611 ft | 12 kts | 296° |
| 2026-04-21 12:36 | 48.11898 | 16.57119 | 614 ft | 12 kts | 341° |
| 2026-04-21 12:37 | 48.11952 | 16.57145 | 618 ft | 0 kts | 26° |
| 2026-04-21 12:37 | 48.11955 | 16.57148 | 616 ft | 2 kts | 27° |
| 2026-04-21 12:37 | 48.11964 | 16.57155 | 617 ft | 0 kts | 26° |